createdAt,value
2018-06-02T00:02:06.671Z,102056.81
2018-06-02T00:04:34.243Z,102055.72
2018-06-02T00:07:01.888Z,102054.47
2018-06-02T00:09:29.912Z,102048.94
2018-06-02T00:11:57.775Z,102049.50
2018-06-02T00:14:25.847Z,102050.48
2018-06-02T00:16:53.395Z,102055.35
2018-06-02T00:19:20.932Z,102048.80
2018-06-02T00:21:48.482Z,102053.70
2018-06-02T00:24:16.151Z,102050.77
2018-06-02T00:26:43.755Z,102045.58
2018-06-02T00:29:12.543Z,102037.77
2018-06-02T00:31:40.215Z,102036.09
2018-06-02T00:34:07.847Z,102037.97
2018-06-02T00:36:35.387Z,102043.33
2018-06-02T00:39:02.935Z,102028.55
2018-06-02T00:41:30.628Z,102032.96
2018-06-02T00:43:59.021Z,102035.62
2018-06-02T00:46:26.700Z,102031.64
2018-06-02T00:48:54.407Z,102036.39
2018-06-02T00:51:21.919Z,102035.95
2018-06-02T00:53:49.480Z,102035.16
2018-06-02T00:56:17.008Z,102034.41
2018-06-02T00:58:44.705Z,102034.01
2018-06-02T01:01:12.543Z,102032.66
2018-06-02T01:03:40.234Z,102032.56
2018-06-02T01:06:07.862Z,102029.77
2018-06-02T01:08:38.506Z,102032.34
2018-06-02T01:11:06.062Z,102027.90
2018-06-02T01:13:34.638Z,102025.83
2018-06-02T01:16:02.215Z,102027.14
2018-06-02T01:18:31.330Z,102021.55
2018-06-02T01:20:59.360Z,102020.72
2018-06-02T01:23:27.992Z,102011.48
2018-06-02T01:25:58.363Z,102004.80
2018-06-02T01:28:25.923Z,102011.34
2018-06-02T01:30:53.460Z,102009.05
2018-06-02T01:33:26.968Z,102012.96
2018-06-02T01:35:55.891Z,102009.53
2018-06-02T01:43:30.239Z,102015.81
2018-06-02T01:45:57.804Z,102016.00
2018-06-02T01:51:07.667Z,102015.83
2018-06-02T01:53:38.091Z,102010.30
2018-06-02T01:56:07.903Z,102016.16
2018-06-02T01:58:37.950Z,102017.50
2018-06-02T02:01:05.497Z,102017.27
2018-06-02T02:03:33.021Z,102011.30
2018-06-02T02:06:00.615Z,102013.69
2018-06-02T02:08:29.889Z,102010.00
2018-06-02T02:11:02.027Z,102012.88
2018-06-02T02:13:30.876Z,102020.05
2018-06-02T02:15:59.815Z,102017.05
2018-06-02T02:18:27.354Z,102014.11
2018-06-02T02:20:54.931Z,102014.56
2018-06-02T02:23:22.467Z,102012.43
2018-06-02T02:25:51.521Z,102007.62
2018-06-02T02:28:22.883Z,102014.66
2018-06-02T02:30:53.974Z,102008.98
2018-06-02T02:33:27.008Z,102016.87
2018-06-02T02:35:54.687Z,102023.53
2018-06-02T02:38:22.295Z,102019.59
2018-06-02T02:40:49.947Z,102023.99
2018-06-02T02:43:22.769Z,102023.69
2018-06-02T02:45:51.842Z,102023.26
2018-06-02T02:48:22.631Z,102022.80
2018-06-02T02:50:52.938Z,102019.22
2018-06-02T02:53:20.551Z,102016.56
2018-06-02T02:55:48.058Z,102019.59
2018-06-02T02:58:15.720Z,102022.28
2018-06-02T03:00:46.766Z,102016.59
2018-06-02T03:03:15.561Z,102012.62
2018-06-02T03:05:46.218Z,102017.33
2018-06-02T03:08:13.802Z,102006.68
2018-06-02T03:10:41.361Z,102015.80
2018-06-02T03:13:08.931Z,102014.41
2018-06-02T03:15:36.539Z,102012.15
2018-06-02T03:18:07.856Z,102011.70
2018-06-02T03:20:35.575Z,102017.88
2018-06-02T03:23:05.698Z,102020.66
2018-06-02T03:25:33.297Z,102025.67
2018-06-02T03:28:00.808Z,102032.12
2018-06-02T03:30:28.549Z,102025.41
2018-06-02T03:32:56.695Z,102024.73
2018-06-02T03:35:31.628Z,102030.38
2018-06-02T03:38:02.210Z,102032.28
2018-06-02T03:43:05.593Z,102028.58
2018-06-02T03:45:33.141Z,102030.37
2018-06-02T03:48:00.738Z,102025.06
2018-06-02T03:50:28.356Z,102032.89
2018-06-02T03:53:02.678Z,102030.26
2018-06-02T04:00:57.175Z,102025.61
2018-06-02T04:03:24.727Z,102018.52
2018-06-02T04:05:52.247Z,102024.58
2018-06-02T04:08:19.846Z,102024.88
2018-06-02T04:10:47.539Z,102026.50
2018-06-02T04:13:16.071Z,102024.67
2018-06-02T04:15:45.416Z,102018.89
2018-06-02T04:18:13.027Z,102022.25
2018-06-02T04:20:40.589Z,102019.95
2018-06-02T04:23:08.174Z,102021.61
2018-06-02T04:25:36.068Z,102019.77
2018-06-02T04:28:03.640Z,102019.28
2018-06-02T04:33:07.712Z,102017.84
2018-06-02T04:35:35.271Z,102026.95
2018-06-02T04:38:02.784Z,102019.95
2018-06-02T04:40:30.308Z,102021.27
2018-06-02T04:42:58.129Z,102023.05
2018-06-02T04:48:03.261Z,102018.86
2018-06-02T04:50:32.348Z,102020.75
2018-06-02T04:53:00.583Z,102014.34
2018-06-02T04:55:28.175Z,102016.20
2018-06-02T04:57:55.723Z,102011.09
2018-06-02T05:00:24.249Z,102007.73
2018-06-02T05:02:51.879Z,102007.00
2018-06-02T05:05:19.447Z,102010.14
2018-06-02T05:07:50.915Z,102010.23
2018-06-02T05:10:18.430Z,102011.64
2018-06-02T05:12:46.040Z,102011.67
2018-06-02T05:15:13.676Z,102015.67
2018-06-02T05:17:41.875Z,102018.38
2018-06-02T05:20:12.052Z,102020.20
2018-06-02T05:22:42.062Z,102015.89
2018-06-02T05:25:12.110Z,102021.15
2018-06-02T05:27:40.690Z,102022.00
2018-06-02T05:30:08.355Z,102026.86
2018-06-02T05:32:35.892Z,102033.55
2018-06-02T05:35:03.536Z,102036.21
2018-06-02T05:37:31.640Z,102032.79
2018-06-02T05:40:01.900Z,102037.55
2018-06-02T05:42:31.201Z,102037.50
2018-06-02T05:44:58.747Z,102041.41
2018-06-02T05:47:26.269Z,102042.66
2018-06-02T05:49:53.842Z,102041.72
2018-06-02T05:54:59.521Z,102032.89
2018-06-02T05:57:28.123Z,102036.80
2018-06-02T06:00:01.759Z,102036.34
2018-06-02T06:02:31.208Z,102035.48
2018-06-02T06:04:58.808Z,102030.78
2018-06-02T06:07:26.423Z,102031.63
2018-06-02T06:09:59.110Z,102033.28
2018-06-02T06:12:28.321Z,102032.37
2018-06-02T06:14:58.953Z,102034.08
2018-06-02T06:17:28.201Z,102035.33
2018-06-02T06:19:57.042Z,102034.81
2018-06-02T06:22:26.490Z,102037.50
2018-06-02T06:24:54.318Z,102033.13
2018-06-02T06:27:24.637Z,102032.67
2018-06-02T06:29:58.885Z,102033.07
2018-06-02T06:32:27.587Z,102031.67
2018-06-02T06:34:55.927Z,102024.95
2018-06-02T06:37:23.613Z,102018.31
2018-06-02T06:39:51.273Z,102023.38
2018-06-02T06:42:18.799Z,102027.20
2018-06-02T06:44:50.599Z,102014.03
2018-06-02T06:47:20.539Z,102017.88
2018-06-02T06:49:50.503Z,102009.84
2018-06-02T06:52:22.929Z,102012.31
2018-06-02T06:54:50.491Z,102013.47
2018-06-02T06:57:18.126Z,102015.52
2018-06-02T06:59:45.802Z,102014.08
2018-06-02T07:04:50.908Z,102016.00
2018-06-02T07:07:22.206Z,102016.30
2018-06-02T07:09:54.515Z,102007.47
2018-06-02T07:12:22.122Z,102004.19
2018-06-02T07:14:49.772Z,102004.91
2018-06-02T07:17:17.529Z,102003.97
2018-06-02T07:22:43.479Z,101996.52
2018-06-02T07:30:46.831Z,101977.26
2018-06-02T07:33:33.580Z,101978.74
2018-06-02T07:50:31.532Z,101991.53
2018-06-02T07:52:59.128Z,101989.20
2018-06-02T07:55:32.079Z,101985.05
2018-06-02T07:58:06.929Z,101982.18
2018-06-02T08:01:02.021Z,101983.27
2018-06-02T08:03:41.687Z,101986.55
2018-06-02T08:06:09.230Z,101979.77
2018-06-02T08:08:36.907Z,101982.52
2018-06-02T08:13:39.123Z,101984.11
2018-06-02T08:16:10.929Z,101982.45
2018-06-02T08:18:46.782Z,101982.14
2018-06-02T08:21:14.407Z,101984.03
2018-06-02T08:23:43.599Z,101986.78
2018-06-02T08:26:11.307Z,101987.19
2018-06-02T08:36:41.861Z,101990.22
2018-06-02T08:39:09.395Z,101984.38
2018-06-02T08:41:37.011Z,101981.73
2018-06-02T08:44:04.805Z,101984.05
2018-06-02T08:55:40.695Z,101973.61
2018-06-02T08:58:08.326Z,101971.30
2018-06-02T09:00:35.987Z,101973.13
2018-06-02T09:11:25.061Z,101968.44
2018-06-02T09:13:53.619Z,101967.20
2018-06-02T09:16:21.171Z,101968.37
2018-06-02T09:27:32.000Z,101955.36
2018-06-02T09:29:59.840Z,101958.03
2018-06-02T09:32:27.667Z,101958.23
2018-06-02T09:34:55.183Z,101961.30
2018-06-02T09:46:31.611Z,101965.40
2018-06-02T09:48:59.213Z,101968.30
2018-06-02T09:51:26.889Z,101961.44
2018-06-02T10:03:03.283Z,101960.44
2018-06-02T10:05:30.862Z,101955.94
2018-06-02T10:07:58.485Z,101953.01
2018-06-02T10:19:34.609Z,101965.86
2018-06-02T10:22:02.321Z,101962.19
2018-06-02T10:24:29.867Z,101966.42
2018-06-02T10:26:58.822Z,101962.61
2018-06-02T10:38:35.505Z,101962.17
2018-06-02T10:41:03.258Z,101968.97
2018-06-02T10:43:30.939Z,101964.81
2018-06-02T10:55:07.243Z,101968.83
2018-06-02T10:57:34.999Z,101957.59
2018-06-02T11:00:02.567Z,101956.86
2018-06-02T11:11:38.657Z,101958.11
2018-06-02T11:14:06.378Z,101954.10
2018-06-02T11:16:33.904Z,101948.66
2018-06-02T11:28:10.504Z,101939.80
2018-06-02T11:30:38.146Z,101942.51
2018-06-02T11:33:05.700Z,101938.71
2018-06-02T11:44:41.602Z,101929.70
2018-06-02T11:47:09.182Z,101927.27
2018-06-02T11:49:36.738Z,101927.21
2018-06-02T11:52:04.360Z,101933.61
2018-06-02T12:03:39.995Z,101939.40
2018-06-02T12:06:07.574Z,101938.61
2018-06-02T12:08:35.315Z,101936.70
2018-06-02T12:20:12.621Z,101934.77
2018-06-02T12:22:40.279Z,101941.17
2018-06-02T12:25:08.103Z,101936.39
2018-06-02T12:36:45.140Z,101933.30
2018-06-02T12:39:12.841Z,101931.87
2018-06-02T12:41:40.420Z,101933.81
2018-06-02T12:53:16.407Z,101944.25
2018-06-02T12:55:43.983Z,101949.78
2018-06-02T12:58:11.534Z,101952.02
2018-06-02T13:09:51.877Z,101961.63
2018-06-02T13:12:19.526Z,101950.57
2018-06-02T13:14:47.319Z,101944.70
2018-06-02T13:17:14.900Z,101947.30
2018-06-02T13:28:51.095Z,101938.11
2018-06-02T13:31:18.791Z,101935.72
2018-06-02T13:33:46.407Z,101932.45
2018-06-02T13:45:22.844Z,101916.56
2018-06-02T13:47:50.359Z,101914.10
2018-06-02T13:50:18.041Z,101912.50
2018-06-02T14:01:53.887Z,101903.09
2018-06-02T14:04:21.447Z,101905.27
2018-06-02T14:06:49.000Z,101906.49
2018-06-02T14:18:24.894Z,101896.86
2018-06-02T14:20:52.561Z,101909.64
2018-06-02T14:23:20.225Z,101904.09
2018-06-02T14:37:32.076Z,101901.37
2018-06-02T14:39:59.670Z,101897.36
2018-06-02T14:42:27.326Z,101903.34
2018-06-02T14:54:03.292Z,101901.03
2018-06-02T14:56:30.967Z,101903.48
2018-06-02T14:58:58.817Z,101902.08
2018-06-02T15:10:34.869Z,101907.18
2018-06-02T15:13:02.481Z,101916.63
2018-06-02T15:15:30.131Z,101915.36
2018-06-02T15:27:06.517Z,101908.84
2018-06-02T15:29:34.121Z,101905.88
2018-06-02T15:32:01.771Z,101899.02
2018-06-02T15:37:34.282Z,101896.80
2018-06-02T15:40:06.148Z,101898.55
2018-06-02T15:42:36.324Z,101900.12
2018-06-02T15:45:03.878Z,101894.52
2018-06-02T15:47:31.432Z,101889.55
2018-06-02T15:49:58.975Z,101888.77
2018-06-02T15:55:03.113Z,101886.62
2018-06-02T15:57:39.154Z,101885.33
2018-06-02T16:00:10.574Z,101887.73
2018-06-02T16:02:40.138Z,101886.02
2018-06-02T16:05:09.339Z,101880.72
2018-06-02T16:07:38.369Z,101884.36
2018-06-02T16:10:12.054Z,101878.00
2018-06-02T16:12:44.267Z,101878.63
2018-06-02T16:15:12.529Z,101877.09
2018-06-02T16:17:42.824Z,101876.55
2018-06-02T16:20:10.524Z,101875.67
2018-06-02T16:22:38.085Z,101879.70
2018-06-02T16:25:06.298Z,101881.51
2018-06-02T16:27:36.401Z,101880.57
2018-06-02T16:30:07.246Z,101879.09
2018-06-02T16:32:42.889Z,101883.03
2018-06-02T16:35:10.480Z,101882.66
2018-06-02T16:37:38.143Z,101882.94
2018-06-02T16:40:05.852Z,101888.88
2018-06-02T16:42:33.483Z,101889.28
2018-06-02T16:45:03.280Z,101888.21
2018-06-02T16:47:34.058Z,101889.30
2018-06-02T16:50:05.303Z,101881.45
2018-06-02T16:52:32.915Z,101889.08
2018-06-02T16:55:00.465Z,101898.31
2018-06-02T16:57:28.698Z,101888.34
2018-06-02T16:59:56.307Z,101884.00
2018-06-02T17:02:24.271Z,101890.25
2018-06-02T17:04:51.892Z,101885.50
2018-06-02T17:07:20.066Z,101889.75
2018-06-02T17:09:47.647Z,101892.38
2018-06-02T17:12:15.237Z,101886.97
2018-06-02T17:14:42.738Z,101882.34
2018-06-02T17:17:10.466Z,101877.36
2018-06-02T17:19:39.039Z,101879.11
2018-06-02T17:22:11.623Z,101879.86
2018-06-02T17:24:43.333Z,101875.92
2018-06-02T17:27:10.904Z,101870.80
2018-06-02T17:29:38.495Z,101882.36
2018-06-02T17:32:06.013Z,101882.26
2018-06-02T17:34:33.579Z,101881.67
2018-06-02T17:37:04.533Z,101897.13
2018-06-02T17:39:34.089Z,101891.72
2018-06-02T17:42:03.621Z,101894.66
2018-06-02T17:44:31.202Z,101890.42
2018-06-02T17:46:58.778Z,101886.03
2018-06-02T17:49:26.708Z,101895.78
2018-06-02T17:51:54.340Z,101887.62
2018-06-02T17:54:24.427Z,101881.15
2018-06-02T17:56:54.854Z,101890.47
2018-06-02T17:59:23.924Z,101892.58
2018-06-02T18:01:51.510Z,101887.08
2018-06-02T18:04:19.908Z,101879.98
2018-06-02T18:06:49.844Z,101881.55
2018-06-02T18:09:26.189Z,101887.19
2018-06-02T18:11:58.372Z,101883.62
2018-06-02T18:17:22.542Z,101879.02
2018-06-02T18:19:50.079Z,101878.47
2018-06-02T18:22:18.566Z,101876.69
2018-06-02T18:24:46.249Z,101887.04
2018-06-02T18:27:13.992Z,101881.27
2018-06-02T18:29:44.180Z,101879.65
2018-06-02T18:32:16.175Z,101873.43
2018-06-02T18:34:50.510Z,101869.45
2018-06-02T18:39:52.016Z,101863.72
2018-06-02T18:42:19.670Z,101863.52
2018-06-02T18:44:47.312Z,101865.48
2018-06-02T18:47:18.673Z,101868.47
2018-06-02T18:49:51.236Z,101870.87
2018-06-02T18:54:53.943Z,101871.13
2018-06-02T18:57:21.461Z,101863.09
2018-06-02T18:59:49.013Z,101873.70
2018-06-02T19:02:17.580Z,101868.66
2018-06-02T19:13:42.859Z,101883.80
2018-06-02T19:16:10.470Z,101888.61
2018-06-02T19:18:38.097Z,101885.66
2018-06-02T19:30:14.032Z,101888.48
2018-06-02T19:32:41.599Z,101887.05
2018-06-02T19:35:09.367Z,101892.31
2018-06-02T19:46:45.495Z,101901.48
2018-06-02T19:49:13.058Z,101903.05
2018-06-02T19:51:40.615Z,101905.52
2018-06-02T20:03:17.178Z,101918.25
2018-06-02T20:05:44.735Z,101922.75
2018-06-02T20:08:12.311Z,101918.33
2018-06-02T20:19:48.177Z,101933.81
2018-06-02T20:22:15.747Z,101937.27
2018-06-02T20:24:43.318Z,101935.03
2018-06-02T20:27:11.023Z,101942.89
2018-06-02T20:38:47.754Z,101955.96
2018-06-02T20:41:15.323Z,101955.34
2018-06-02T20:43:42.859Z,101956.98
2018-06-02T20:55:19.326Z,101966.66
2018-06-02T20:57:46.968Z,101971.81
2018-06-02T21:00:14.540Z,101973.09
2018-06-02T21:11:50.767Z,101970.19
2018-06-02T21:14:18.287Z,101970.88
2018-06-02T21:16:45.936Z,101969.00
2018-06-02T21:28:20.378Z,101970.98
2018-06-02T21:30:47.947Z,101967.28
2018-06-02T21:33:15.497Z,101979.88
2018-06-02T21:35:43.128Z,101976.63
2018-06-02T21:47:18.989Z,101979.92
2018-06-02T21:49:46.570Z,101981.52
2018-06-02T21:52:14.345Z,101978.64
2018-06-02T22:03:51.295Z,101984.83
2018-06-02T22:06:18.956Z,101994.27
2018-06-02T22:08:46.518Z,101994.18
2018-06-02T22:20:22.655Z,101996.78
2018-06-02T22:22:50.221Z,101993.47
2018-06-02T22:25:17.806Z,101995.02
2018-06-02T22:36:48.103Z,101986.53
2018-06-02T22:39:16.849Z,101990.19
2018-06-02T22:41:44.544Z,101985.51
2018-06-02T22:53:16.911Z,101995.72
2018-06-02T22:55:44.507Z,101999.30
2018-06-02T22:58:12.089Z,101996.97
2018-06-02T23:00:39.650Z,102006.31
2018-06-02T23:12:15.154Z,102017.88
2018-06-02T23:14:42.736Z,102014.48
2018-06-02T23:17:10.350Z,102015.01
2018-06-02T23:28:45.672Z,102025.80
2018-06-02T23:31:13.277Z,102025.89
2018-06-02T23:33:40.855Z,102027.24
2018-06-02T23:45:17.452Z,102041.42
2018-06-02T23:47:44.999Z,102044.63
2018-06-02T23:50:12.679Z,102046.56
